Greenfield, MO (65661)

5:50 AM CST on February 13, 2016 (GMT -0600)
APRSWXNET | | Change Station
CLOSE
Current Station
Personal Weather Station
Location: Lockwood, MO
Elevation: 1069 ft
Nearby Weather Stations

Elev 1069 ft 37.39 °N, 93.95 °W | Updated 22 minutes ago

Overcast
Overcast
22 °F
Feels Like 22 °F
N
1
Wind Variable Wind from ENE
Gusts 6.0 mph

Today
High -- | Low -- °F
--% Chance of Precip.
Yesterday
High -- | Low -- °F
Precip. -- in
Pressure 30.54 in
Visibility 10.0 miles
Clouds Mostly Cloudy 10000 ft
Overcast 12000 ft
Windchill 22 °F
Dew Point 9 °F
Humidity 56%
Rainfall in
Snow Depth Not available.
7:07 AM 5:52 PM
Waxing Crescent, 30% visible
METAR KSGF 131052Z 04009KT 10SM BKN100 OVC120 M06/M16 A3050 RMK AO2 SLP340 T10561161
Pressure 30.54 in
Visibility 10.0 miles
Clouds Mostly Cloudy 10000 ft
Overcast 12000 ft
Windchill 22 °F
Dew Point 9 °F
Humidity 56%
Rainfall in
Snow Depth Not available.
7:07 AM 5:52 PM
Waxing Crescent, 30% visible
METAR KSGF 131052Z 04009KT 10SM BKN100 OVC120 M06/M16 A3050 RMK AO2 SLP340 T10561161

10-Day Weather Forecast

Almanac

Astronomy

Feb. 13, 2016 Rise Set
Actual Time
Civil Twilight
Nautical Twilight
Astronomical Twilight
Moon
Length of Visible Light
Length of Day
Tomorrow will be .
, % of the Moon is Illuminated

Today's Extremes

State Highs State Lows

Community

WunderPhotos

Upload Photos

1,892,541 photos uploaded!

WunderBlog® & News

Nearby

Air Quality

  Air Quality AQ Index Pollutant
Not available.

Snow Depth

Station Depth Elevation

Earthquake Activity

City Distance Mag. Time & Date
Minimum magnitude displayed is 2.5.

Coastal Water Temperatures

Place Temperature

Stations

Nearby Weather Stations

Station Location Temp. Windchill Dew Point Humidity Wind Precip. Elev Updated Type
                   

Watches & Warnings

There are currently no watches in effect.